createdAt,value
2023-02-04T00:02:25.774Z,12.40
2023-02-04T00:04:52.533Z,9.70
2023-02-04T00:07:18.901Z,9.70
2023-02-04T00:09:49.392Z,11.30
2023-02-04T00:12:16.876Z,11.40
2023-02-04T00:14:43.265Z,6.60
2023-02-04T00:17:12.165Z,8.50
2023-02-04T00:19:39.687Z,9.70
2023-02-04T00:22:07.282Z,8.50
2023-02-04T00:24:34.779Z,7.40
2023-02-04T00:27:01.749Z,7.60
2023-02-04T00:29:28.448Z,8.10
2023-02-04T00:31:55.311Z,5.30
2023-02-04T00:34:21.744Z,7.70
2023-02-04T00:36:48.804Z,7.10
2023-02-04T00:39:16.460Z,2.80
2023-02-04T00:41:42.787Z,6.80
2023-02-04T00:44:09.134Z,5.30
2023-02-04T00:46:35.492Z,6.10
2023-02-04T00:49:05.925Z,5.70
2023-02-04T00:51:32.373Z,5.30
2023-02-04T00:53:58.740Z,4.50
2023-02-04T00:56:25.249Z,5.90
2023-02-04T00:58:51.614Z,4.80
2023-02-04T01:01:18.002Z,5.10
2023-02-04T01:03:44.432Z,3.60
2023-02-04T01:06:11.457Z,8.00
2023-02-04T01:08:37.797Z,4.40
2023-02-04T01:11:04.594Z,5.80
2023-02-04T01:13:31.011Z,2.70
2023-02-04T01:15:57.498Z,4.10
2023-02-04T01:18:23.976Z,5.10
2023-02-04T01:20:50.478Z,6.00
2023-02-04T01:23:16.895Z,4.10
2023-02-04T01:25:43.334Z,6.00
2023-02-04T01:28:09.890Z,4.60
2023-02-04T01:30:36.581Z,5.20
2023-02-04T01:33:03.008Z,5.30
2023-02-04T01:35:29.328Z,6.70
2023-02-04T01:37:55.697Z,5.40
2023-02-04T01:40:22.208Z,5.80
2023-02-04T01:42:48.849Z,6.40
2023-02-04T01:45:15.230Z,6.10
2023-02-04T01:47:42.035Z,7.10
2023-02-04T01:50:12.885Z,5.80
2023-02-04T01:52:40.363Z,4.90
2023-02-04T01:55:21.283Z,5.70
2023-02-04T01:57:50.132Z,6.40
2023-02-04T02:00:22.011Z,4.40
2023-02-04T02:02:50.634Z,8.00
2023-02-04T02:05:43.377Z,6.70
2023-02-04T02:08:10.621Z,5.30
2023-02-04T02:10:39.846Z,6.80
2023-02-04T02:13:08.158Z,8.80
2023-02-04T02:15:38.924Z,7.30
2023-02-04T02:18:05.968Z,4.60
2023-02-04T02:20:32.942Z,3.70
2023-02-04T02:23:26.318Z,6.30
2023-02-04T02:25:52.839Z,4.50
2023-02-04T02:28:22.207Z,5.80
2023-02-04T02:30:49.737Z,3.20
2023-02-04T02:33:19.044Z,7.00
2023-02-04T02:35:49.900Z,5.70
2023-02-04T02:38:18.660Z,4.90
2023-02-04T02:40:46.235Z,4.50
2023-02-04T02:43:20.845Z,3.80
2023-02-04T02:45:48.169Z,3.30
2023-02-04T02:48:14.640Z,2.80
2023-02-04T02:50:41.745Z,5.50
2023-02-04T02:53:13.057Z,4.30
2023-02-04T02:55:39.843Z,6.10
2023-02-04T02:58:15.594Z,3.90
2023-02-04T03:00:42.008Z,5.70
2023-02-04T03:03:17.103Z,4.20
2023-02-04T03:05:46.611Z,3.60
2023-02-04T03:08:14.736Z,4.50
2023-02-04T03:10:41.934Z,4.00
2023-02-04T03:13:09.579Z,3.80
2023-02-04T03:15:36.769Z,2.80
2023-02-04T03:18:03.215Z,5.20
2023-02-04T03:20:31.182Z,5.70
2023-02-04T03:22:58.431Z,6.70
2023-02-04T03:25:27.518Z,4.10
2023-02-04T03:27:57.349Z,4.90
2023-02-04T03:30:25.132Z,4.10
2023-02-04T03:32:51.852Z,3.60
2023-02-04T03:35:19.082Z,3.40
2023-02-04T03:37:45.597Z,6.20
2023-02-04T03:40:12.969Z,6.40
2023-02-04T03:42:39.323Z,5.60
2023-02-04T03:45:06.113Z,5.40
2023-02-04T03:47:32.624Z,3.40
2023-02-04T03:49:59.468Z,6.40
2023-02-04T03:52:25.876Z,6.10
2023-02-04T03:54:52.326Z,5.10
2023-02-04T03:57:18.693Z,5.20
2023-02-04T03:59:45.139Z,5.80
2023-02-04T04:02:11.458Z,6.80
2023-02-04T04:04:37.853Z,7.20
2023-02-04T04:07:04.284Z,5.80
2023-02-04T04:09:30.626Z,6.60
2023-02-04T04:11:57.019Z,4.00
2023-02-04T04:14:23.411Z,4.80
2023-02-04T04:16:49.808Z,5.00
2023-02-04T04:19:16.335Z,5.20
2023-02-04T04:21:42.649Z,17.40
2023-02-04T04:24:09.018Z,15.40
2023-02-04T04:26:35.353Z,14.70
2023-02-04T04:29:01.686Z,16.50
2023-02-04T04:31:28.140Z,9.90
2023-02-04T04:33:54.616Z,10.40
2023-02-04T04:36:20.959Z,9.80
2023-02-04T04:38:47.324Z,5.50
2023-02-04T04:41:13.726Z,5.60
2023-02-04T04:43:40.084Z,4.10
2023-02-04T04:46:06.384Z,5.30
2023-02-04T04:48:32.717Z,4.80
2023-02-04T04:50:59.210Z,7.00
2023-02-04T04:53:25.664Z,4.40
2023-02-04T04:55:51.998Z,4.50
2023-02-04T04:58:18.343Z,3.90
2023-02-04T05:00:44.759Z,3.20
2023-02-04T05:03:11.188Z,3.20
2023-02-04T05:05:40.249Z,7.30
2023-02-04T05:08:12.752Z,4.70
2023-02-04T05:10:40.039Z,4.80
2023-02-04T05:13:06.825Z,11.80
2023-02-04T05:15:33.571Z,6.10
2023-02-04T05:18:00.236Z,4.10
2023-02-04T05:20:26.705Z,3.60
2023-02-04T05:22:55.280Z,4.20
2023-02-04T05:25:22.637Z,4.90
2023-02-04T05:27:49.321Z,2.20
2023-02-04T05:30:15.763Z,6.10
2023-02-04T05:32:42.260Z,7.00
2023-02-04T05:35:09.027Z,5.00
2023-02-04T05:37:35.394Z,2.70
2023-02-04T05:40:01.931Z,6.30
2023-02-04T05:42:28.232Z,5.90
2023-02-04T05:44:54.543Z,4.10
2023-02-04T05:47:20.857Z,6.40
2023-02-04T05:49:47.177Z,4.80
2023-02-04T05:52:13.567Z,2.00
2023-02-04T05:54:39.957Z,6.10
2023-02-04T05:57:06.754Z,2.70
2023-02-04T05:59:33.157Z,3.00
2023-02-04T06:01:59.614Z,11.00
2023-02-04T06:04:26.005Z,2.40
2023-02-04T06:06:52.412Z,3.80
2023-02-04T06:09:18.890Z,6.10
2023-02-04T06:11:45.305Z,4.40
2023-02-04T06:14:11.688Z,4.10
2023-02-04T06:16:38.113Z,4.40
2023-02-04T06:19:04.764Z,2.90
2023-02-04T06:21:31.204Z,2.90
2023-02-04T06:23:57.558Z,5.50
2023-02-04T06:26:23.953Z,3.00
2023-02-04T06:28:50.422Z,5.30
2023-02-04T06:31:16.817Z,4.40
2023-02-04T06:33:43.363Z,3.20
2023-02-04T06:36:09.725Z,4.20
2023-02-04T06:38:36.039Z,4.80
2023-02-04T06:41:02.436Z,3.60
2023-02-04T06:43:28.793Z,6.60
2023-02-04T06:45:55.297Z,2.70
2023-02-04T06:48:21.916Z,2.70
2023-02-04T06:50:48.700Z,5.20
2023-02-04T06:53:15.099Z,7.30
2023-02-04T06:55:41.668Z,4.30
2023-02-04T06:58:08.911Z,4.50
2023-02-04T07:00:35.488Z,2.90
2023-02-04T07:03:01.950Z,7.00
2023-02-04T07:05:28.345Z,3.40
2023-02-04T07:07:54.695Z,5.20
2023-02-04T07:13:03.737Z,4.30
2023-02-04T07:15:31.868Z,2.80
2023-02-04T07:18:00.384Z,4.90
2023-02-04T07:20:28.200Z,4.80
2023-02-04T07:22:55.948Z,4.50
2023-02-04T07:25:23.854Z,2.90
2023-02-04T07:27:51.674Z,6.50
2023-02-04T07:30:19.548Z,3.70
2023-02-04T07:32:47.322Z,3.00
2023-02-04T07:37:45.691Z,3.40
2023-02-04T07:40:13.726Z,5.00
2023-02-04T07:42:41.457Z,3.50
2023-02-04T07:45:12.036Z,2.30
2023-02-04T07:47:39.721Z,3.70
2023-02-04T07:50:07.683Z,3.80
2023-02-04T07:52:35.516Z,4.10
2023-02-04T07:55:03.671Z,3.40
2023-02-04T07:57:31.690Z,2.70
2023-02-04T07:59:59.518Z,4.70
2023-02-04T08:02:27.588Z,3.10
2023-02-04T08:04:55.485Z,4.70
2023-02-04T08:07:23.181Z,2.90
2023-02-04T08:09:50.959Z,4.70
2023-02-04T08:12:18.723Z,3.70
2023-02-04T08:14:46.467Z,5.10
2023-02-04T08:17:14.169Z,5.70
2023-02-04T08:19:42.396Z,2.80
2023-02-04T08:22:11.657Z,2.50
2023-02-04T08:24:39.474Z,3.30
2023-02-04T08:27:07.338Z,3.20
2023-02-04T08:29:35.109Z,3.80
2023-02-04T08:32:04.208Z,3.40
2023-02-04T08:34:32.270Z,3.60
2023-02-04T08:37:00.015Z,3.90
2023-02-04T08:39:27.786Z,3.80
2023-02-04T08:41:55.528Z,4.00
2023-02-04T08:44:23.235Z,3.00
2023-02-04T08:46:51.122Z,3.40
2023-02-04T08:49:18.881Z,3.50
2023-02-04T08:51:46.683Z,3.20
2023-02-04T08:54:14.373Z,2.50
2023-02-04T08:56:42.100Z,3.40
2023-02-04T08:59:09.902Z,3.80
2023-02-04T09:01:38.040Z,1.80
2023-02-04T09:04:05.747Z,4.00
2023-02-04T09:06:33.577Z,3.30
2023-02-04T09:09:01.689Z,1.60
2023-02-04T09:11:29.612Z,3.50
2023-02-04T09:13:57.517Z,2.00
2023-02-04T09:16:25.433Z,3.10
2023-02-04T09:18:53.323Z,2.20
2023-02-04T09:21:21.096Z,3.60
2023-02-04T09:23:48.831Z,2.40
2023-02-04T09:26:16.610Z,2.00
2023-02-04T09:28:44.532Z,2.10
2023-02-04T09:31:12.384Z,1.80
2023-02-04T09:33:40.809Z,3.90
2023-02-04T09:36:09.981Z,1.90
2023-02-04T09:38:37.944Z,2.80
2023-02-04T09:41:08.517Z,2.30
2023-02-04T09:43:40.420Z,2.00
2023-02-04T09:46:18.173Z,2.40
2023-02-04T09:48:46.132Z,1.50
2023-02-04T09:51:19.246Z,1.80
2023-02-04T09:53:48.153Z,0.70
2023-02-04T09:56:17.184Z,2.10
2023-02-04T09:58:44.963Z,2.20
2023-02-04T10:01:18.969Z,1.40
2023-02-04T10:03:51.340Z,2.50
2023-02-04T10:06:21.310Z,1.80
2023-02-04T10:08:51.169Z,3.00
2023-02-04T10:11:21.317Z,3.10
2023-02-04T10:13:51.696Z,3.40
2023-02-04T10:16:23.767Z,2.10
2023-02-04T10:18:51.560Z,2.50
2023-02-04T10:21:24.522Z,3.70
2023-02-04T10:23:55.870Z,2.10
2023-02-04T10:26:27.360Z,3.70
2023-02-04T10:28:59.916Z,3.90
2023-02-04T10:31:30.262Z,2.50
2023-02-04T10:34:04.237Z,2.50
2023-02-04T10:36:32.076Z,2.80
2023-02-04T10:39:23.819Z,2.90
2023-02-04T10:41:56.875Z,1.70
2023-02-04T10:44:33.561Z,2.70
2023-02-04T10:47:15.281Z,2.30
2023-02-04T10:49:53.257Z,2.50
2023-02-04T10:52:23.220Z,3.20
2023-02-04T10:54:51.250Z,3.30
2023-02-04T10:57:28.472Z,3.60
2023-02-04T11:00:00.096Z,4.60
2023-02-04T11:02:46.098Z,2.50
2023-02-04T11:05:20.714Z,3.30
2023-02-04T11:07:49.638Z,4.00
2023-02-04T11:10:24.232Z,2.50
2023-02-04T11:12:55.016Z,3.00
2023-02-04T11:15:47.980Z,2.30
2023-02-04T11:18:20.546Z,3.90
2023-02-04T11:20:50.765Z,2.60
2023-02-04T11:23:27.314Z,2.30
2023-02-04T11:26:10.224Z,4.10
2023-02-04T11:28:41.176Z,6.10
2023-02-04T11:31:29.580Z,6.60
2023-02-04T11:34:15.951Z,5.20
2023-02-04T11:37:02.006Z,2.50
2023-02-04T11:39:37.450Z,2.60
2023-02-04T11:42:15.092Z,2.50
2023-02-04T11:44:48.180Z,4.10
2023-02-04T11:47:16.023Z,3.40
2023-02-04T11:49:47.077Z,2.10
2023-02-04T11:52:14.804Z,2.60
2023-02-04T11:54:42.500Z,2.20
2023-02-04T11:57:12.159Z,2.30
2023-02-04T11:59:40.153Z,2.90
2023-02-04T12:02:23.989Z,2.00
2023-02-04T12:05:08.354Z,3.50
2023-02-04T12:07:36.378Z,1.20
2023-02-04T12:10:33.649Z,2.90
2023-02-04T12:13:13.664Z,4.40
2023-02-04T12:15:41.513Z,2.10
2023-02-04T12:18:14.895Z,2.50
2023-02-04T12:20:42.582Z,3.50
2023-02-04T12:23:10.313Z,3.00
2023-02-04T12:25:38.030Z,2.70
2023-02-04T12:28:05.785Z,3.70
2023-02-04T12:30:33.528Z,1.50
2023-02-04T12:33:01.263Z,2.40
2023-02-04T12:35:29.018Z,2.90
2023-02-04T12:37:57.855Z,3.50
2023-02-04T12:40:25.724Z,3.30
2023-02-04T12:42:53.695Z,2.40
2023-02-04T12:45:21.466Z,7.20
2023-02-04T12:47:49.342Z,4.00
2023-02-04T12:50:24.631Z,2.50
2023-02-04T12:52:54.270Z,2.70
2023-02-04T12:55:23.489Z,2.20
2023-02-04T12:57:51.392Z,3.40
2023-02-04T13:00:20.889Z,3.00
2023-02-04T13:02:49.373Z,7.70
2023-02-04T13:05:18.500Z,2.60
2023-02-04T13:07:46.747Z,7.30
2023-02-04T13:10:15.005Z,6.70
2023-02-04T13:12:42.834Z,3.10
2023-02-04T13:15:11.182Z,2.50
2023-02-04T13:17:38.942Z,3.50
2023-02-04T13:20:07.823Z,3.50
2023-02-04T13:22:35.603Z,2.30
2023-02-04T13:25:04.264Z,3.40
2023-02-04T13:27:32.479Z,4.30
2023-02-04T13:30:00.271Z,3.10
2023-02-04T13:32:28.115Z,1.80
2023-02-04T13:34:55.809Z,2.40
2023-02-04T13:37:23.673Z,3.30
2023-02-04T13:39:51.423Z,3.80
2023-02-04T13:42:19.245Z,5.10
2023-02-04T13:44:47.052Z,3.00
2023-02-04T13:47:14.862Z,2.00
2023-02-04T13:49:42.622Z,4.10
2023-02-04T13:52:10.318Z,3.40
2023-02-04T13:54:38.013Z,3.10
2023-02-04T13:57:06.546Z,2.40
2023-02-04T13:59:34.273Z,2.80
2023-02-04T14:02:02.519Z,6.00
2023-02-04T14:04:30.222Z,3.70
2023-02-04T14:06:58.026Z,5.50
2023-02-04T14:09:25.729Z,3.10
2023-02-04T14:11:53.452Z,4.20
2023-02-04T14:14:21.512Z,3.90
2023-02-04T14:16:49.325Z,3.30
2023-02-04T14:19:17.107Z,2.00
2023-02-04T14:21:46.491Z,4.30
2023-02-04T14:24:14.205Z,2.50
2023-02-04T14:26:41.895Z,3.50
2023-02-04T14:29:11.154Z,3.00
2023-02-04T14:31:39.004Z,5.40
2023-02-04T14:34:06.763Z,2.70
2023-02-04T14:36:34.627Z,4.10
2023-02-04T14:39:02.357Z,2.80
2023-02-04T14:41:31.454Z,5.50
2023-02-04T14:43:59.193Z,3.10
2023-02-04T14:46:26.994Z,3.80
2023-02-04T14:48:54.974Z,2.80
2023-02-04T14:51:22.663Z,3.00
2023-02-04T14:53:50.496Z,3.30
2023-02-04T14:56:18.343Z,3.30
2023-02-04T14:58:46.092Z,2.80
2023-02-04T15:01:14.140Z,3.70
2023-02-04T15:03:41.907Z,3.40
2023-02-04T15:06:09.797Z,2.70
2023-02-04T15:08:37.662Z,3.90
2023-02-04T15:11:05.403Z,2.70
2023-02-04T15:13:33.127Z,5.90
2023-02-04T15:16:00.935Z,3.00
2023-02-04T15:18:29.141Z,4.00
2023-02-04T15:20:57.052Z,4.90
2023-02-04T15:23:24.815Z,5.00
2023-02-04T15:25:57.305Z,2.80
2023-02-04T15:28:25.340Z,4.50
2023-02-04T15:30:53.554Z,5.50
2023-02-04T15:33:21.350Z,9.70
2023-02-04T15:35:49.154Z,5.20
2023-02-04T15:38:16.893Z,6.30
2023-02-04T15:40:44.646Z,16.30
2023-02-04T15:43:12.388Z,6.50
2023-02-04T15:45:43.744Z,8.40
2023-02-04T15:48:12.050Z,6.40
2023-02-04T15:50:40.124Z,5.70
2023-02-04T15:53:07.848Z,13.80
2023-02-04T15:55:35.833Z,14.90
2023-02-04T15:58:03.710Z,13.30
2023-02-04T16:00:32.839Z,11.50
2023-02-04T16:03:01.180Z,7.90
2023-02-04T16:05:29.085Z,5.50
2023-02-04T16:07:57.150Z,4.30
2023-02-04T16:10:25.252Z,5.30
2023-02-04T16:12:55.037Z,4.90
2023-02-04T16:15:22.960Z,4.30
2023-02-04T16:17:51.267Z,6.00
2023-02-04T16:20:19.184Z,4.60
2023-02-04T16:22:47.122Z,6.10
2023-02-04T16:25:15.211Z,5.00
2023-02-04T16:27:43.007Z,4.60
2023-02-04T16:30:12.239Z,6.40
2023-02-04T16:32:40.004Z,15.00
2023-02-04T16:35:08.556Z,10.40
2023-02-04T16:37:37.732Z,8.20
2023-02-04T16:40:06.285Z,8.50
2023-02-04T16:42:34.040Z,11.10
2023-02-04T16:45:01.834Z,5.10
2023-02-04T16:47:30.026Z,8.50
2023-02-04T16:50:01.035Z,14.90
2023-02-04T16:52:29.126Z,21.80
2023-02-04T16:54:57.977Z,10.10
2023-02-04T16:57:25.960Z,17.20
2023-02-04T16:59:53.722Z,8.00
2023-02-04T17:02:22.743Z,7.20
2023-02-04T17:04:50.799Z,15.40
2023-02-04T17:07:18.505Z,7.30
2023-02-04T17:09:46.220Z,9.70
2023-02-04T17:12:13.927Z,11.80
2023-02-04T17:14:41.680Z,9.90
2023-02-04T17:17:09.460Z,10.10
2023-02-04T17:19:37.258Z,12.00
2023-02-04T17:22:05.514Z,9.10
2023-02-04T17:24:33.232Z,5.20
2023-02-04T17:27:03.299Z,6.30
2023-02-04T17:29:31.016Z,14.80
2023-02-04T17:31:58.768Z,4.50
2023-02-04T17:34:26.564Z,11.30
2023-02-04T17:36:54.399Z,8.20
2023-02-04T17:39:22.456Z,6.70
2023-02-04T17:41:50.338Z,4.60
2023-02-04T17:44:20.241Z,12.50
2023-02-04T17:46:48.056Z,7.60
2023-02-04T17:49:16.162Z,22.60
2023-02-04T17:51:43.918Z,13.80
2023-02-04T17:54:14.130Z,14.20
2023-02-04T17:56:41.939Z,21.00
2023-02-04T17:59:11.186Z,9.40
2023-02-04T18:01:41.533Z,16.30
2023-02-04T18:04:13.785Z,24.70
2023-02-04T18:06:41.603Z,9.00
2023-02-04T18:09:17.889Z,6.00
2023-02-04T18:11:46.024Z,17.50
2023-02-04T18:14:26.629Z,11.50
2023-02-04T18:16:58.369Z,10.70
2023-02-04T18:19:30.869Z,13.90
2023-02-04T18:21:59.291Z,11.40
2023-02-04T18:24:36.689Z,9.60
2023-02-04T18:27:25.964Z,12.00
2023-02-04T18:29:55.569Z,10.40
2023-02-04T18:32:37.923Z,13.20
2023-02-04T18:35:34.426Z,10.00
2023-02-04T18:38:02.294Z,13.10
2023-02-04T18:40:31.354Z,6.50
2023-02-04T18:43:08.161Z,12.10
2023-02-04T18:45:36.331Z,13.30
2023-02-04T18:48:19.545Z,13.90
2023-02-04T18:50:49.683Z,17.10
2023-02-04T18:53:26.568Z,11.10
2023-02-04T18:55:59.684Z,9.50
2023-02-04T18:58:34.179Z,7.20
2023-02-04T19:01:09.498Z,10.60
2023-02-04T19:03:51.339Z,9.20
2023-02-04T19:06:25.430Z,10.70
2023-02-04T19:08:56.964Z,12.50
2023-02-04T19:11:33.814Z,17.60
2023-02-04T19:14:02.962Z,13.10
2023-02-04T19:16:36.736Z,11.20
2023-02-04T19:19:23.279Z,12.50
2023-02-04T19:21:51.840Z,10.50
2023-02-04T19:24:22.331Z,6.90
2023-02-04T19:27:01.757Z,8.70
2023-02-04T19:29:42.420Z,9.20
2023-02-04T19:32:19.282Z,9.80
2023-02-04T19:34:47.173Z,8.40
2023-02-04T19:37:24.573Z,7.70
2023-02-04T19:39:54.547Z,4.00
2023-02-04T19:44:51.583Z,6.90
2023-02-04T19:47:42.471Z,5.60
2023-02-04T19:50:13.531Z,10.20
2023-02-04T19:52:48.485Z,10.10
2023-02-04T19:55:36.669Z,11.40
2023-02-04T19:58:25.331Z,11.50
2023-02-04T20:03:31.347Z,3.90
2023-02-04T20:06:04.268Z,9.90
2023-02-04T20:08:44.553Z,6.20
2023-02-04T20:11:15.449Z,12.40
2023-02-04T20:13:43.486Z,8.10
2023-02-04T20:16:38.008Z,6.70
2023-02-04T20:19:21.155Z,7.50
2023-02-04T20:22:26.274Z,5.70
2023-02-04T20:24:59.320Z,11.60
2023-02-04T20:27:35.225Z,9.50
2023-02-04T20:30:11.432Z,7.80
2023-02-04T20:32:47.867Z,8.90
2023-02-04T20:35:21.432Z,11.10
2023-02-04T20:37:59.246Z,9.40
2023-02-04T20:40:33.828Z,10.50
2023-02-04T20:43:20.433Z,7.20
2023-02-04T20:45:53.790Z,6.50
2023-02-04T20:48:48.714Z,7.50
2023-02-04T20:51:23.392Z,6.10
2023-02-04T20:53:53.207Z,11.00
2023-02-04T20:56:28.564Z,6.20
2023-02-04T20:59:18.292Z,10.20
2023-02-04T21:01:50.304Z,12.80
2023-02-04T21:04:39.447Z,10.00
2023-02-04T21:07:17.102Z,10.30
2023-02-04T21:09:45.341Z,8.90
2023-02-04T21:12:13.111Z,12.70
2023-02-04T21:14:40.918Z,11.10
2023-02-04T21:17:08.940Z,11.10
2023-02-04T21:19:37.506Z,11.40
2023-02-04T21:22:05.443Z,8.40
2023-02-04T21:24:33.772Z,8.00
2023-02-04T21:27:01.655Z,8.70
2023-02-04T21:29:29.571Z,11.50
2023-02-04T21:31:57.362Z,13.30
2023-02-04T21:34:25.249Z,6.80
2023-02-04T21:36:53.103Z,7.30
2023-02-04T21:39:21.776Z,10.80
2023-02-04T21:42:09.451Z,10.80
2023-02-04T21:44:38.487Z,9.20
2023-02-04T21:47:06.295Z,13.00
2023-02-04T21:49:34.120Z,5.80
2023-02-04T21:52:01.933Z,9.70
2023-02-04T21:54:29.691Z,9.90
2023-02-04T21:57:02.048Z,8.60
2023-02-04T21:59:30.676Z,12.10
2023-02-04T22:01:58.699Z,6.50
2023-02-04T22:04:26.536Z,9.20
2023-02-04T22:06:56.107Z,8.90
2023-02-04T22:09:23.801Z,7.00
2023-02-04T22:11:51.517Z,5.00
2023-02-04T22:14:19.890Z,8.90
2023-02-04T22:16:47.958Z,8.20
2023-02-04T22:19:15.866Z,6.90
2023-02-04T22:21:43.747Z,6.30
2023-02-04T22:24:11.492Z,9.10
2023-02-04T22:26:39.208Z,5.00
2023-02-04T22:29:06.920Z,2.60
2023-02-04T22:31:35.144Z,8.80
2023-02-04T22:34:05.379Z,8.70
2023-02-04T22:36:33.092Z,8.40
2023-02-04T22:39:00.842Z,12.20
2023-02-04T22:41:28.647Z,4.60
2023-02-04T22:43:56.437Z,7.60
2023-02-04T22:46:24.216Z,5.70
2023-02-04T22:48:51.968Z,8.20
2023-02-04T22:51:19.875Z,8.40
2023-02-04T22:53:47.645Z,7.40
2023-02-04T22:56:15.640Z,7.60
2023-02-04T22:58:43.418Z,8.40
2023-02-04T23:01:11.163Z,8.80
2023-02-04T23:03:39.000Z,6.00
2023-02-04T23:06:07.074Z,5.40
2023-02-04T23:08:34.821Z,6.60
2023-02-04T23:11:02.675Z,10.80
2023-02-04T23:13:30.450Z,7.50
2023-02-04T23:15:58.390Z,8.30
2023-02-04T23:18:26.170Z,12.30
2023-02-04T23:20:53.968Z,7.00
2023-02-04T23:23:21.734Z,9.10
2023-02-04T23:25:49.768Z,11.90
2023-02-04T23:28:17.751Z,11.70
2023-02-04T23:30:45.670Z,10.10
2023-02-04T23:33:13.630Z,8.80
2023-02-04T23:35:41.458Z,11.00
2023-02-04T23:38:09.427Z,12.30
2023-02-04T23:40:37.171Z,14.90
2023-02-04T23:43:05.014Z,6.40
2023-02-04T23:45:33.482Z,13.80
2023-02-04T23:48:01.540Z,15.00
2023-02-04T23:50:29.278Z,13.50
2023-02-04T23:52:57.341Z,15.00
2023-02-04T23:55:25.447Z,13.40
2023-02-04T23:57:53.384Z,7.40
